createdAt,value
2023-02-25T00:01:29.491Z,12.65
2023-02-25T00:03:57.583Z,9.30
2023-02-25T00:06:25.903Z,8.15
2023-02-25T00:08:54.342Z,10.40
2023-02-25T00:11:23.649Z,5.80
2023-02-25T00:13:51.116Z,11.68
2023-02-25T00:16:20.437Z,10.90
2023-02-25T00:18:48.829Z,17.15
2023-02-25T00:21:17.266Z,10.18
2023-02-25T00:23:49.624Z,12.50
2023-02-25T00:26:18.301Z,8.93
2023-02-25T00:28:48.224Z,10.65
2023-02-25T00:31:25.778Z,7.25
2023-02-25T00:33:53.013Z,14.02
2023-02-25T00:36:23.811Z,13.32
2023-02-25T00:38:54.433Z,6.72
2023-02-25T00:41:29.035Z,10.80
2023-02-25T00:44:02.821Z,12.18
2023-02-25T00:46:32.567Z,13.15
2023-02-25T00:49:01.621Z,7.82
2023-02-25T00:51:31.750Z,11.85
2023-02-25T00:53:59.233Z,13.27
2023-02-25T00:56:27.652Z,10.73
2023-02-25T00:58:54.773Z,10.15
2023-02-25T01:01:31.254Z,8.27
2023-02-25T01:03:58.950Z,11.38
2023-02-25T01:06:28.387Z,9.13
2023-02-25T01:08:55.964Z,12.90
2023-02-25T01:11:29.617Z,13.75
2023-02-25T01:14:06.984Z,7.95
2023-02-25T01:16:35.915Z,11.73
2023-02-25T01:19:09.550Z,4.43
2023-02-25T01:21:41.362Z,14.75
2023-02-25T01:24:13.282Z,14.32
2023-02-25T01:26:42.875Z,10.82
2023-02-25T01:29:23.259Z,9.65
2023-02-25T01:32:00.125Z,7.63
2023-02-25T01:34:28.953Z,16.45
2023-02-25T01:36:56.693Z,9.63
2023-02-25T01:39:26.524Z,13.20
2023-02-25T01:41:56.794Z,7.97
2023-02-25T01:44:34.196Z,14.60
2023-02-25T01:47:01.565Z,18.52
2023-02-25T01:49:45.047Z,12.07
2023-02-25T01:52:21.076Z,13.95
2023-02-25T01:54:55.228Z,13.45
2023-02-25T01:57:23.746Z,7.70
2023-02-25T01:59:53.754Z,10.40
2023-02-25T02:02:25.665Z,11.07
2023-02-25T02:04:54.177Z,9.65
2023-02-25T02:07:24.764Z,7.50
2023-02-25T02:09:58.640Z,10.55
2023-02-25T02:12:35.788Z,7.60
2023-02-25T02:15:08.311Z,8.55
2023-02-25T02:21:17.916Z,8.00
2023-02-25T02:24:30.651Z,5.50
2023-02-25T02:27:30.244Z,10.48
2023-02-25T02:30:26.156Z,9.23
2023-02-25T02:33:16.656Z,16.55
2023-02-25T02:36:10.509Z,7.20
2023-02-25T02:39:04.141Z,5.78
2023-02-25T02:41:37.932Z,9.48
2023-02-25T02:44:19.750Z,9.98
2023-02-25T02:47:04.718Z,11.88
2023-02-25T02:49:49.043Z,13.82
2023-02-25T02:52:27.016Z,13.60
2023-02-25T02:55:06.775Z,7.43
2023-02-25T02:57:38.301Z,3.40
2023-02-25T03:00:18.828Z,7.72
2023-02-25T03:03:13.423Z,6.22
2023-02-25T03:05:45.430Z,7.55
2023-02-25T03:08:23.536Z,7.10
2023-02-25T03:10:50.550Z,6.50
2023-02-25T03:13:17.756Z,5.70
2023-02-25T03:15:47.959Z,6.28
2023-02-25T03:18:27.498Z,8.65
2023-02-25T03:20:58.826Z,9.45
2023-02-25T03:23:35.578Z,3.55
2023-02-25T03:26:30.976Z,12.63
2023-02-25T03:29:02.318Z,3.22
2023-02-25T03:32:06.831Z,9.50
2023-02-25T03:34:42.313Z,5.50
2023-02-25T03:37:21.777Z,8.68
2023-02-25T03:39:56.813Z,9.10
2023-02-25T03:42:34.210Z,11.07
2023-02-25T03:45:08.325Z,7.07
2023-02-25T03:47:38.219Z,9.30
2023-02-25T03:50:25.420Z,8.32
2023-02-25T03:52:58.140Z,8.00
2023-02-25T03:55:46.791Z,14.35
2023-02-25T03:58:13.646Z,4.63
2023-02-25T04:00:46.102Z,9.55
2023-02-25T04:03:13.029Z,13.85
2023-02-25T04:05:39.903Z,16.00
2023-02-25T04:08:15.276Z,14.45
2023-02-25T04:10:44.358Z,13.70
2023-02-25T04:13:15.279Z,11.40
2023-02-25T04:15:43.165Z,10.55
2023-02-25T04:18:09.986Z,15.85
2023-02-25T04:20:36.820Z,10.30
2023-02-25T04:23:03.612Z,11.38
2023-02-25T04:25:30.565Z,19.08
2023-02-25T04:27:57.332Z,13.98
2023-02-25T04:30:24.194Z,9.82
2023-02-25T04:32:51.427Z,5.97
2023-02-25T04:35:18.398Z,14.50
2023-02-25T04:37:45.364Z,16.25
2023-02-25T04:40:19.911Z,11.77
2023-02-25T04:42:47.463Z,13.35
2023-02-25T04:45:16.021Z,13.38
2023-02-25T04:47:43.705Z,12.80
2023-02-25T04:50:12.253Z,13.38
2023-02-25T04:52:39.489Z,13.02
2023-02-25T04:55:07.385Z,18.25
2023-02-25T04:57:34.158Z,15.63
2023-02-25T05:00:00.949Z,10.52
2023-02-25T05:02:27.821Z,14.10
2023-02-25T05:04:54.694Z,12.55
2023-02-25T05:07:21.488Z,15.50
2023-02-25T05:09:48.260Z,13.00
2023-02-25T05:12:15.074Z,18.08
2023-02-25T05:14:41.947Z,21.02
2023-02-25T05:17:08.813Z,10.23
2023-02-25T05:19:35.839Z,16.23
2023-02-25T05:22:02.832Z,7.35
2023-02-25T05:24:29.618Z,18.20
2023-02-25T05:26:56.447Z,10.40
2023-02-25T05:29:23.369Z,13.98
2023-02-25T05:31:51.820Z,12.07
2023-02-25T05:34:18.830Z,20.15
2023-02-25T05:36:46.908Z,16.92
2023-02-25T05:39:14.778Z,17.70
2023-02-25T05:41:41.626Z,18.10
2023-02-25T05:44:10.806Z,14.48
2023-02-25T05:46:37.712Z,24.38
2023-02-25T05:49:04.653Z,12.82
2023-02-25T05:51:31.506Z,14.93
2023-02-25T05:53:58.356Z,19.42
2023-02-25T05:56:30.236Z,16.65
2023-02-25T05:58:59.243Z,11.27
2023-02-25T06:01:29.399Z,8.35
2023-02-25T06:03:59.545Z,16.55
2023-02-25T06:06:30.963Z,13.05
2023-02-25T06:08:58.547Z,16.63
2023-02-25T06:11:30.205Z,14.82
2023-02-25T06:13:59.903Z,16.92
2023-02-25T06:16:33.013Z,14.52
2023-02-25T06:19:01.724Z,13.65
2023-02-25T06:21:28.538Z,12.20
2023-02-25T06:23:55.426Z,14.02
2023-02-25T06:26:23.437Z,12.07
2023-02-25T06:28:50.533Z,14.93
2023-02-25T06:31:20.205Z,16.27
2023-02-25T06:33:47.184Z,14.07
2023-02-25T06:36:15.675Z,13.95
2023-02-25T06:38:44.369Z,11.02
2023-02-25T06:41:16.654Z,17.48
2023-02-25T06:43:44.977Z,14.73
2023-02-25T06:46:14.949Z,11.32
2023-02-25T06:48:42.012Z,11.75
2023-02-25T06:51:10.480Z,11.82
2023-02-25T06:53:39.120Z,12.93
2023-02-25T06:56:10.757Z,11.75
2023-02-25T06:58:38.080Z,15.75
2023-02-25T07:01:14.975Z,11.45
2023-02-25T07:03:45.455Z,10.88
2023-02-25T07:06:15.856Z,8.15
2023-02-25T07:08:43.059Z,9.75
2023-02-25T07:11:21.522Z,15.85
2023-02-25T07:13:49.878Z,12.88
2023-02-25T07:16:18.083Z,18.92
2023-02-25T07:18:45.586Z,11.73
2023-02-25T07:21:13.746Z,11.70
2023-02-25T07:23:42.035Z,13.82
2023-02-25T07:26:12.414Z,19.05
2023-02-25T07:28:39.897Z,15.23
2023-02-25T07:31:21.909Z,13.63
2023-02-25T07:33:49.492Z,14.65
2023-02-25T07:36:17.093Z,15.95
2023-02-25T07:38:44.408Z,15.48
2023-02-25T07:41:14.530Z,7.50
2023-02-25T07:43:42.110Z,15.38
2023-02-25T07:46:10.163Z,12.80
2023-02-25T07:48:37.331Z,12.90
2023-02-25T07:51:10.315Z,17.40
2023-02-25T07:53:38.093Z,12.65
2023-02-25T07:56:07.316Z,10.07
2023-02-25T07:58:35.002Z,11.68
2023-02-25T08:01:08.351Z,11.38
2023-02-25T08:03:35.528Z,12.13
2023-02-25T08:06:06.340Z,11.27
2023-02-25T08:08:33.280Z,16.25
2023-02-25T08:11:05.404Z,8.88
2023-02-25T08:13:32.313Z,9.82
2023-02-25T08:15:59.352Z,10.05
2023-02-25T08:18:26.257Z,11.73
2023-02-25T08:20:55.921Z,8.40
2023-02-25T08:23:23.349Z,11.38
2023-02-25T08:25:55.181Z,6.75
2023-02-25T08:28:23.885Z,11.25
2023-02-25T08:30:51.230Z,7.03
2023-02-25T08:33:18.614Z,8.52
2023-02-25T08:35:45.767Z,9.40
2023-02-25T08:38:13.107Z,8.23
2023-02-25T08:40:41.199Z,7.32
2023-02-25T08:43:09.494Z,10.13
2023-02-25T08:45:41.528Z,7.93
2023-02-25T08:48:09.855Z,10.02
2023-02-25T08:50:36.747Z,8.48
2023-02-25T08:53:03.588Z,12.40
2023-02-25T08:55:30.423Z,10.02
2023-02-25T08:57:57.723Z,6.65
2023-02-25T09:00:25.349Z,16.65
2023-02-25T09:02:52.201Z,8.15
2023-02-25T09:05:20.666Z,13.70
2023-02-25T09:07:47.671Z,14.27
2023-02-25T09:10:14.917Z,13.60
2023-02-25T09:12:43.074Z,8.30
2023-02-25T09:15:12.374Z,19.67
2023-02-25T09:17:40.702Z,13.00
2023-02-25T09:20:11.244Z,17.83
2023-02-25T09:22:40.300Z,14.35
2023-02-25T09:25:07.921Z,13.45
2023-02-25T09:27:34.760Z,10.75
2023-02-25T09:30:01.557Z,9.57
2023-02-25T09:32:28.535Z,9.65
2023-02-25T09:34:56.094Z,16.50
2023-02-25T09:37:23.372Z,11.50
2023-02-25T09:39:50.509Z,16.95
2023-02-25T09:42:24.757Z,9.02
2023-02-25T09:45:02.444Z,9.63
2023-02-25T09:47:48.052Z,14.88
2023-02-25T09:50:21.489Z,16.83
2023-02-25T09:53:04.996Z,11.75
2023-02-25T09:55:40.480Z,11.52
2023-02-25T09:58:46.174Z,6.75
2023-02-25T10:01:46.209Z,8.68
2023-02-25T10:04:22.615Z,9.75
2023-02-25T10:06:53.025Z,7.22
2023-02-25T10:09:44.546Z,10.73
2023-02-25T10:12:14.288Z,5.40
2023-02-25T10:15:03.110Z,6.80
2023-02-25T10:17:46.586Z,6.53
2023-02-25T10:20:43.251Z,8.18
2023-02-25T10:23:50.458Z,7.30
2023-02-25T10:26:26.381Z,10.77
2023-02-25T10:29:07.307Z,3.63
2023-02-25T10:31:35.543Z,12.18
2023-02-25T10:34:22.317Z,4.93
2023-02-25T10:36:59.283Z,11.65
2023-02-25T10:39:28.897Z,4.13
2023-02-25T10:41:56.305Z,9.60
2023-02-25T10:44:23.226Z,10.00
2023-02-25T10:47:05.059Z,6.70
2023-02-25T10:49:38.469Z,6.80
2023-02-25T10:52:19.122Z,5.57
2023-02-25T10:54:54.130Z,6.97
2023-02-25T10:57:41.225Z,9.13
2023-02-25T11:00:31.276Z,6.15
2023-02-25T11:03:03.903Z,2.03
2023-02-25T11:05:43.599Z,6.40
2023-02-25T11:08:33.732Z,16.15
2023-02-25T11:11:22.158Z,7.35
2023-02-25T11:14:13.281Z,4.32
2023-02-25T11:16:44.478Z,5.15
2023-02-25T11:21:57.870Z,3.63
2023-02-25T11:24:35.963Z,5.95
2023-02-25T11:27:06.813Z,5.38
2023-02-25T11:29:43.883Z,4.07
2023-02-25T11:32:21.714Z,3.47
2023-02-25T11:35:02.724Z,4.63
2023-02-25T11:37:45.559Z,4.57
2023-02-25T11:40:41.331Z,6.69
2023-02-25T11:43:38.513Z,5.10
2023-02-25T11:46:28.199Z,4.43
2023-02-25T11:49:13.039Z,3.28
2023-02-25T11:51:54.781Z,4.97
2023-02-25T11:54:36.044Z,6.43
2023-02-25T11:57:26.485Z,3.22
2023-02-25T12:00:25.583Z,5.80
2023-02-25T12:03:41.571Z,4.68
2023-02-25T12:06:56.570Z,5.10
2023-02-25T12:10:05.078Z,3.65
2023-02-25T12:12:53.453Z,7.35
2023-02-25T12:15:49.278Z,8.80
2023-02-25T12:18:56.082Z,8.23
2023-02-25T12:22:04.049Z,9.55
2023-02-25T12:25:07.185Z,6.10
2023-02-25T12:28:10.311Z,8.50
2023-02-25T12:30:55.766Z,8.15
2023-02-25T12:34:03.735Z,5.25
2023-02-25T12:36:56.476Z,10.45
2023-02-25T12:39:47.410Z,7.90
2023-02-25T12:42:41.929Z,7.45
2023-02-25T12:45:32.806Z,5.50
2023-02-25T12:48:23.851Z,4.50
2023-02-25T12:50:59.847Z,6.63
2023-02-25T12:54:09.884Z,6.43
2023-02-25T12:56:54.364Z,5.75
2023-02-25T13:00:12.235Z,7.70
2023-02-25T13:02:41.961Z,3.88
2023-02-25T13:05:43.136Z,8.05
2023-02-25T13:08:22.001Z,10.13
2023-02-25T13:10:57.846Z,7.35
2023-02-25T13:14:01.347Z,5.32
2023-02-25T13:17:00.698Z,4.07
2023-02-25T13:20:21.061Z,6.20
2023-02-25T13:23:03.276Z,6.85
2023-02-25T13:26:00.819Z,6.47
2023-02-25T13:28:52.462Z,6.10
2023-02-25T13:31:49.600Z,8.43
2023-02-25T13:34:49.987Z,4.50
2023-02-25T13:37:46.037Z,5.53
2023-02-25T13:40:27.088Z,4.60
2023-02-25T13:43:19.679Z,6.78
2023-02-25T13:46:16.285Z,3.53
2023-02-25T13:49:14.010Z,6.97
2023-02-25T13:52:04.976Z,9.13
2023-02-25T13:54:53.542Z,4.93
2023-02-25T13:58:13.852Z,4.25
2023-02-25T14:01:08.063Z,5.43
2023-02-25T14:04:02.050Z,8.80
2023-02-25T14:06:53.842Z,5.13
2023-02-25T14:09:57.148Z,4.40
2023-02-25T14:12:23.884Z,6.22
2023-02-25T14:15:11.837Z,5.28
2023-02-25T14:18:16.310Z,4.75
2023-02-25T14:21:04.912Z,7.32
2023-02-25T14:23:34.493Z,7.60
2023-02-25T14:26:28.379Z,5.45
2023-02-25T14:29:39.871Z,3.40
2023-02-25T14:32:21.886Z,6.30
2023-02-25T14:35:30.110Z,7.15
2023-02-25T14:38:37.156Z,5.60
2023-02-25T14:42:05.522Z,4.22
2023-02-25T14:44:47.415Z,6.78
2023-02-25T14:47:25.864Z,5.68
2023-02-25T14:53:09.341Z,4.43
2023-02-25T14:56:15.998Z,4.10
2023-02-25T14:59:18.629Z,4.90
2023-02-25T15:01:55.757Z,6.57
2023-02-25T15:04:56.012Z,3.90
2023-02-25T15:07:40.869Z,4.90
2023-02-25T15:10:35.720Z,7.88
2023-02-25T15:13:37.717Z,8.20
2023-02-25T15:16:42.131Z,5.60
2023-02-25T15:19:11.734Z,8.52
2023-02-25T15:21:42.451Z,3.30
2023-02-25T15:24:38.467Z,2.50
2023-02-25T15:27:36.156Z,5.10
2023-02-25T15:30:14.099Z,7.88
2023-02-25T15:33:02.085Z,6.45
2023-02-25T15:35:34.638Z,6.13
2023-02-25T15:38:13.638Z,5.00
2023-02-25T15:40:52.950Z,7.28
2023-02-25T15:43:19.647Z,5.30
2023-02-25T15:46:19.961Z,3.55
2023-02-25T15:49:22.199Z,3.65
2023-02-25T15:51:58.225Z,5.20
2023-02-25T15:54:28.131Z,5.50
2023-02-25T15:57:24.678Z,11.00
2023-02-25T15:59:57.728Z,3.75
2023-02-25T16:02:30.561Z,5.05
2023-02-25T16:05:07.911Z,7.07
2023-02-25T16:07:49.906Z,11.07
2023-02-25T16:10:26.430Z,4.43
2023-02-25T16:12:57.630Z,6.60
2023-02-25T16:15:43.656Z,5.10
2023-02-25T16:18:21.953Z,5.25
2023-02-25T16:20:58.354Z,2.65
2023-02-25T16:23:25.924Z,1.85
2023-02-25T16:26:26.868Z,5.30
2023-02-25T16:29:26.227Z,4.63
2023-02-25T16:32:04.275Z,3.88
2023-02-25T16:34:54.980Z,3.97
2023-02-25T16:37:41.974Z,8.52
2023-02-25T16:40:25.471Z,6.22
2023-02-25T16:42:54.433Z,4.18
2023-02-25T16:45:32.322Z,6.25
2023-02-25T16:48:26.915Z,5.03
2023-02-25T16:50:55.835Z,4.68
2023-02-25T16:53:27.047Z,5.80
2023-02-25T16:56:00.849Z,2.40
2023-02-25T16:58:30.708Z,3.80
2023-02-25T17:01:01.768Z,4.28
2023-02-25T17:03:46.484Z,7.55
2023-02-25T17:06:19.490Z,4.55
2023-02-25T17:08:50.791Z,7.50
2023-02-25T17:11:24.186Z,12.55
2023-02-25T17:13:56.014Z,5.35
2023-02-25T17:16:30.336Z,7.18
2023-02-25T17:19:04.021Z,7.43
2023-02-25T17:21:44.147Z,7.65
2023-02-25T17:24:20.939Z,6.10
2023-02-25T17:26:53.497Z,3.85
2023-02-25T17:29:21.353Z,6.85
2023-02-25T17:31:55.839Z,6.38
2023-02-25T17:34:35.699Z,6.50
2023-02-25T17:37:09.191Z,3.95
2023-02-25T17:39:36.300Z,6.43
2023-02-25T17:42:03.371Z,3.05
2023-02-25T17:44:36.351Z,6.75
2023-02-25T17:47:06.151Z,7.15
2023-02-25T17:49:36.238Z,5.95
2023-02-25T17:52:19.109Z,6.50
2023-02-25T17:54:59.719Z,6.60
2023-02-25T17:57:31.242Z,8.75
2023-02-25T18:00:36.040Z,6.55
2023-02-25T18:03:30.763Z,7.70
2023-02-25T18:06:00.793Z,10.27
2023-02-25T18:08:49.953Z,7.72
2023-02-25T18:11:30.732Z,10.32
2023-02-25T18:13:57.893Z,10.82
2023-02-25T18:16:41.557Z,8.73
2023-02-25T18:19:32.744Z,10.07
2023-02-25T18:21:59.856Z,7.53
2023-02-25T18:24:34.820Z,7.78
2023-02-25T18:27:08.354Z,8.70
2023-02-25T18:29:35.503Z,12.20
2023-02-25T18:32:02.497Z,9.48
2023-02-25T18:34:29.546Z,8.98
2023-02-25T18:36:56.473Z,10.10
2023-02-25T18:39:26.462Z,8.32
2023-02-25T18:41:53.474Z,7.68
2023-02-25T18:44:20.495Z,5.70
2023-02-25T18:46:47.699Z,9.02
2023-02-25T18:49:14.498Z,9.85
2023-02-25T18:51:41.438Z,4.78
2023-02-25T18:54:16.347Z,10.20
2023-02-25T18:56:43.577Z,9.25
2023-02-25T18:59:10.465Z,13.15
2023-02-25T19:01:37.848Z,4.57
2023-02-25T19:04:05.006Z,11.02
2023-02-25T19:06:33.822Z,8.05
2023-02-25T19:09:01.240Z,5.90
2023-02-25T19:11:35.828Z,4.63
2023-02-25T19:14:06.700Z,10.35
2023-02-25T19:16:33.716Z,13.35
2023-02-25T19:19:00.601Z,9.07
2023-02-25T19:21:28.244Z,6.95
2023-02-25T19:23:55.472Z,8.88
2023-02-25T19:26:22.699Z,7.03
2023-02-25T19:28:49.723Z,8.05
2023-02-25T19:31:17.963Z,8.82
2023-02-25T19:33:45.754Z,8.43
2023-02-25T19:36:12.790Z,11.98
2023-02-25T19:38:40.000Z,4.30
2023-02-25T19:41:06.876Z,6.25
2023-02-25T19:43:34.015Z,6.13
2023-02-25T19:46:00.979Z,7.00
2023-02-25T19:48:28.137Z,9.13
2023-02-25T19:50:55.245Z,7.90
2023-02-25T19:53:22.147Z,9.48
2023-02-25T19:55:49.149Z,9.10
2023-02-25T19:58:15.987Z,7.80
2023-02-25T20:00:46.044Z,7.95
2023-02-25T20:03:15.254Z,8.82
2023-02-25T20:05:42.797Z,9.85
2023-02-25T20:08:10.027Z,9.30
2023-02-25T20:10:36.890Z,7.82
2023-02-25T20:13:03.805Z,7.00
2023-02-25T20:15:30.932Z,8.90
2023-02-25T20:17:57.873Z,14.25
2023-02-25T20:20:25.091Z,10.48
2023-02-25T20:22:52.091Z,12.85
2023-02-25T20:25:19.280Z,15.40
2023-02-25T20:27:46.567Z,13.23
2023-02-25T20:30:17.565Z,10.95
2023-02-25T20:32:46.192Z,15.27
2023-02-25T20:35:21.161Z,7.40
2023-02-25T20:37:59.311Z,10.27
2023-02-25T20:40:26.447Z,8.57
2023-02-25T20:42:53.541Z,9.30
2023-02-25T20:45:20.952Z,10.43
2023-02-25T20:47:47.982Z,7.50
2023-02-25T20:50:16.854Z,8.75
2023-02-25T20:52:43.871Z,8.05
2023-02-25T20:55:11.165Z,7.15
2023-02-25T20:57:38.156Z,10.80
2023-02-25T21:00:08.976Z,9.52
2023-02-25T21:02:36.159Z,9.30
2023-02-25T21:05:03.308Z,10.57
2023-02-25T21:07:30.160Z,11.50
2023-02-25T21:09:57.152Z,11.63
2023-02-25T21:12:24.377Z,11.73
2023-02-25T21:14:52.335Z,13.35
2023-02-25T21:17:19.259Z,10.73
2023-02-25T21:19:46.253Z,11.98
2023-02-25T21:22:13.132Z,7.85
2023-02-25T21:24:40.024Z,8.98
2023-02-25T21:27:07.120Z,8.60
2023-02-25T21:29:33.973Z,7.70
2023-02-25T21:32:00.999Z,8.25
2023-02-25T21:34:28.049Z,11.25
2023-02-25T21:36:58.457Z,8.40
2023-02-25T21:39:26.057Z,12.93
2023-02-25T21:41:53.261Z,11.82
2023-02-25T21:44:20.574Z,12.35
2023-02-25T21:46:47.500Z,15.23
2023-02-25T21:49:14.471Z,15.18
2023-02-25T21:51:41.418Z,15.10
2023-02-25T21:54:09.072Z,13.35
2023-02-25T21:56:36.400Z,15.70
2023-02-25T21:59:05.517Z,21.25
2023-02-25T22:01:40.420Z,22.27
2023-02-25T22:04:08.561Z,16.17
2023-02-25T22:06:35.922Z,15.15
2023-02-25T22:09:03.902Z,20.73
2023-02-25T22:11:36.088Z,18.67
2023-02-25T22:14:05.640Z,26.52
2023-02-25T22:16:32.911Z,30.65
2023-02-25T22:19:00.543Z,34.15
2023-02-25T22:21:33.508Z,28.90
2023-02-25T22:24:03.498Z,25.30
2023-02-25T22:26:33.247Z,19.95
2023-02-25T22:29:04.492Z,28.27
2023-02-25T22:31:32.704Z,17.15
2023-02-25T22:34:00.696Z,24.48
2023-02-25T22:36:28.311Z,14.10
2023-02-25T22:38:56.544Z,19.77
2023-02-25T22:41:29.551Z,17.77
2023-02-25T22:43:58.918Z,10.95
2023-02-25T22:46:36.194Z,13.35
2023-02-25T22:49:04.956Z,10.02
2023-02-25T22:51:41.986Z,10.98
2023-02-25T22:54:15.876Z,13.18
2023-02-25T22:56:44.418Z,15.88
2023-02-25T22:59:13.380Z,12.98
2023-02-25T23:01:40.784Z,18.67
2023-02-25T23:04:10.284Z,17.63
2023-02-25T23:06:44.050Z,16.25
2023-02-25T23:09:13.864Z,22.60
2023-02-25T23:11:43.608Z,17.58
2023-02-25T23:14:11.091Z,18.42
2023-02-25T23:16:43.537Z,15.30
2023-02-25T23:19:15.802Z,13.25
2023-02-25T23:21:43.183Z,18.42
2023-02-25T23:24:16.180Z,15.27
2023-02-25T23:26:44.194Z,18.02
2023-02-25T23:29:12.970Z,14.15
2023-02-25T23:31:46.978Z,9.77
2023-02-25T23:34:25.222Z,13.45
2023-02-25T23:36:56.656Z,9.93
2023-02-25T23:39:23.723Z,14.20
2023-02-25T23:41:50.610Z,14.82
2023-02-25T23:44:17.440Z,11.82
2023-02-25T23:46:45.218Z,11.85
2023-02-25T23:49:15.650Z,12.60
2023-02-25T23:51:46.599Z,16.35
2023-02-25T23:54:17.474Z,17.48
2023-02-25T23:56:45.284Z,15.32
2023-02-25T23:59:12.263Z,14.65
